Time;durP1;ratioP1;P1;durP2;ratioP2;P2;SDS_P1;SDS_P2;PMS_P1;PMS_P2;Temp;Humidity;BMP_temperature;BMP_pressure;BME280_temperature;BME280_humidity;BME280_pressure;Samples;Min_cycle;Max_cycle;Signal;HPM_P1;HPM_P2
2022/09/05 00:02:17;;;;;;;3.40;3.20;;;;;;;8.63;81.05;101676.44;1786392;80;20931;-87
2022/09/05 00:05:13;;;;;;;5.17;2.80;;;;;;;8.61;81.17;101671.25;1750910;80;20900;-86
2022/09/05 00:08:04;;;;;;;3.50;3.20;;;;;;;8.59;81.19;101661.30;1786057;80;20880;-87
2022/09/05 00:11:11;;;;;;;6.30;2.98;;;;;;;8.65;81.09;101665.02;1786026;79;21155;-86
2022/09/05 00:13:41;;;;;;;3.30;2.85;;;;;;;8.66;81.12;101665.40;1751412;81;21536;-86
2022/09/05 00:16:41;;;;;;;4.85;3.05;;;;;;;8.66;81.10;101664.09;1751313;81;21485;-86
2022/09/05 00:19:27;;;;;;;6.53;4.12;;;;;;;8.66;81.01;101659.33;1744747;81;20961;-85
2022/09/05 00:22:22;;;;;;;4.90;3.75;;;;;;;8.65;80.50;101657.63;1665508;85;21420;-86
2022/09/05 00:25:24;;;;;;;5.50;3.52;;;;;;;8.64;80.73;101660.67;1664949;85;21160;-85
2022/09/05 00:28:29;;;;;;;6.05;3.37;;;;;;;8.64;80.71;101660.67;1696421;84;21023;-87
2022/09/05 00:31:10;;;;;;;9.85;3.10;;;;;;;8.62;80.54;101658.56;1698860;83;21035;-85
2022/09/05 00:34:12;;;;;;;4.10;3.67;;;;;;;8.62;80.38;101662.95;1698846;84;21027;-86
2022/09/05 00:36:46;;;;;;;4.45;3.40;;;;;;;8.60;80.27;101660.37;1698810;83;21039;-87
2022/09/05 00:39:38;;;;;;;4.35;3.95;;;;;;;8.59;80.20;101664.37;1699113;84;21287;-86
2022/09/05 00:42:16;;;;;;;5.67;3.92;;;;;;;8.58;80.31;101656.99;1698574;83;20925;-86
2022/09/05 00:44:53;;;;;;;4.37;3.08;;;;;;;8.58;80.28;101657.42;1699009;84;20929;-87
2022/09/05 00:47:48;;;;;;;5.60;3.05;;;;;;;8.57;80.25;101658.34;1674957;84;20984;-88
2022/09/05 00:50:49;;;;;;;5.35;3.47;;;;;;;8.55;80.31;101655.77;1712360;83;20917;-87
2022/09/05 00:53:36;;;;;;;4.12;3.37;;;;;;;8.53;80.23;101647.13;1665231;85;21942;-86
2022/09/05 00:56:37;;;;;;;4.28;3.35;;;;;;;8.50;80.15;101641.55;1652220;85;21500;-86
2022/09/05 00:59:31;;;;;;;9.65;6.25;;;;;;;8.49;80.26;101645.52;1686503;82;21454;-86
2022/09/05 01:02:25;;;;;;;3.72;3.15;;;;;;;8.47;80.37;101644.29;1762418;81;20917;-87
2022/09/05 01:05:29;;;;;;;4.30;3.33;;;;;;;8.47;80.56;101644.29;1776378;80;20973;-86
2022/09/05 01:08:20;;;;;;;3.10;2.90;;;;;;;8.46;80.61;101646.48;1776066;80;21789;-85
2022/09/05 01:11:04;;;;;;;8.48;3.15;;;;;;;8.44;80.68;101641.77;1775820;80;20866;-87
2022/09/05 01:13:43;;;;;;;6.30;4.15;;;;;;;8.46;80.74;101639.11;1775853;80;20969;-85
2022/09/05 01:16:30;;;;;;;4.65;3.70;;;;;;;8.44;80.74;101639.15;1740872;80;20906;-86
2022/09/05 01:19:11;;;;;;;4.50;4.00;;;;;;;8.44;80.79;101637.00;1748642;80;20846;-86
2022/09/05 01:22:07;;;;;;;5.03;4.55;;;;;;;8.42;80.90;101630.50;1775957;80;21150;-86
2022/09/05 01:25:00;;;;;;;7.03;4.03;;;;;;;8.42;80.86;101628.35;1775853;80;20906;-86
2022/09/05 01:28:01;;;;;;;4.65;4.25;;;;;;;8.41;80.79;101635.34;1775686;80;20926;-85
2022/09/05 01:30:48;;;;;;;8.48;4.87;;;;;;;8.40;80.82;101633.63;1775881;80;20973;-87
2022/09/05 01:33:52;;;;;;;8.40;5.03;;;;;;;8.40;80.88;101636.23;1775843;80;20842;-86
2022/09/05 01:36:57;;;;;;;6.00;5.22;;;;;;;8.40;80.88;101636.23;1775688;80;21858;-86
2022/09/05 01:39:52;;;;;;;6.50;4.90;;;;;;;8.39;80.86;101635.82;1775652;80;21439;-87
2022/09/05 01:42:56;;;;;;;7.37;5.65;;;;;;;8.37;80.38;101630.25;1775806;80;21486;-85
2022/09/05 01:45:48;;;;;;;8.85;5.70;;;;;;;8.32;80.47;101629.10;1775896;80;20976;-85
2022/09/05 01:48:47;;;;;;;7.92;5.92;;;;;;;8.30;80.81;101629.14;1778328;80;20854;-86
2022/09/05 01:51:48;;;;;;;7.00;5.70;;;;;;;8.30;80.83;101633.53;1781139;80;21247;-86
2022/09/05 01:55:03;;;;;;;8.40;4.70;;;;;;;8.30;80.73;101630.91;1792574;80;21414;-85
2022/09/05 01:58:15;;;;;;;9.95;5.53;;;;;;;8.28;80.82;101624.42;1792863;80;20980;-84
2022/09/05 02:01:01;;;;;;;4.65;3.87;;;;;;;8.30;80.99;101626.99;1792171;80;20857;-86
2022/09/05 02:03:34;;;;;;;10.65;5.03;;;;;;;8.28;80.87;101621.81;1792413;80;20976;-85
2022/09/05 02:06:09;;;;;;;6.45;5.55;;;;;;;8.28;81.03;101622.27;1794312;80;21203;-85
2022/09/05 02:08:51;;;;;;;8.33;5.45;;;;;;;8.29;81.08;101618.30;1762548;76;20854;-85
2022/09/05 02:11:17;;;;;;;8.28;4.90;;;;;;;8.29;80.89;101615.70;1794465;76;21223;-86
2022/09/05 02:14:01;;;;;;;7.78;4.78;;;;;;;8.26;80.74;101610.55;1767708;77;20913;-86
2022/09/05 02:16:44;;;;;;;5.33;4.35;;;;;;;8.27;81.05;101613.58;1794434;79;20862;-85
2022/09/05 02:19:22;;;;;;;6.28;4.70;;;;;;;8.29;81.11;101607.85;1794379;76;21134;-85
2022/09/05 02:22:10;;;;;;;5.60;5.10;;;;;;;8.30;80.98;101610.00;1792931;80;20992;-86
2022/09/05 02:24:43;;;;;;;8.10;5.17;;;;;;;8.28;80.84;101600.91;1794186;76;20976;-86
2022/09/05 02:27:25;;;;;;;5.40;4.90;;;;;;;8.27;80.62;101603.56;1794697;76;20976;-86
2022/09/05 02:30:16;;;;;;;5.62;4.80;;;;;;;8.24;80.47;101606.29;1794270;76;20893;-86
2022/09/05 02:33:18;;;;;;;7.25;4.90;;;;;;;8.20;80.50;101600.30;1794687;76;21218;-86
2022/09/05 02:36:05;;;;;;;6.15;4.92;;;;;;;8.19;80.34;101605.60;1764067;79;20827;-86
2022/09/05 02:38:58;;;;;;;8.80;5.53;;;;;;;8.14;80.21;101601.84;1794270;80;20838;-85
2022/09/05 02:41:35;;;;;;;6.35;5.67;;;;;;;8.14;80.79;101607.06;1792974;80;20901;-85
2022/09/05 02:44:13;;;;;;;8.88;5.58;;;;;;;8.16;80.98;101606.99;1793714;80;20952;-85
2022/09/05 02:47:04;;;;;;;6.83;5.17;;;;;;;8.16;81.08;101601.77;1793824;80;21144;-86
2022/09/05 02:50:19;;;;;;;7.30;5.62;;;;;;;8.16;81.07;101610.91;1793660;80;20917;-84
2022/09/05 02:52:45;;;;;;;8.88;5.30;;;;;;;8.14;80.92;101617.95;1793846;80;20850;-86
2022/09/05 02:55:51;;;;;;;7.12;5.15;;;;;;;8.13;81.07;101614.95;1767297;80;20928;-86
2022/09/05 02:58:42;;;;;;;;;;;;;;;8.12;81.11;101620.63;1796287;80;20889;-85
2022/09/05 03:01:20;;;;;;;6.65;5.70;;;;;;;8.14;81.29;101624.05;1793529;80;21077;-85
2022/09/05 03:04:01;;;;;;;14.25;5.05;;;;;;;8.14;81.08;101624.48;1792891;80;20929;-85
2022/09/05 03:07:08;;;;;;;13.25;7.62;;;;;;;8.14;80.84;101627.09;1792506;80;20941;-85
2022/09/05 03:10:12;;;;;;;19.52;9.58;;;;;;;8.12;80.75;101623.25;1791751;80;21520;-83
2022/09/05 03:13:13;;;;;;;43.35;18.98;;;;;;;8.11;80.75;101624.13;1793012;80;20925;-85
2022/09/05 03:16:02;;;;;;;99.87;44.88;;;;;;;8.12;80.79;101632.39;1776992;80;21329;-84
2022/09/05 03:18:52;;;;;;;99.30;42.65;;;;;;;8.13;80.86;101624.09;1781928;80;21043;-84
2022/09/05 03:21:47;;;;;;;96.63;38.55;;;;;;;8.14;80.96;101628.40;1790062;80;21442;-85
2022/09/05 03:24:41;;;;;;;;;;;;;;;8.13;80.93;101623.63;1794445;80;20882;-85
2022/09/05 03:27:34;;;;;;;113.03;41.83;;;;;;;8.14;80.83;101619.25;1791850;80;20424;-85
2022/09/05 03:30:23;;;;;;;93.60;38.75;;;;;;;8.13;80.74;101622.33;1791665;80;21233;-85
2022/09/05 03:33:17;;;;;;;69.50;31.23;;;;;;;8.14;80.68;101621.87;1791664;80;20933;-85
2022/09/05 03:36:15;;;;;;;64.25;27.35;;;;;;;8.14;80.77;101619.25;1791735;80;20870;-85
2022/09/05 03:39:30;;;;;;;67.42;29.35;;;;;;;8.17;80.83;101629.62;1792407;80;20976;-85
2022/09/05 03:42:31;;;;;;;81.17;29.80;;;;;;;8.19;80.79;101628.66;1791813;80;21050;-85
2022/09/05 03:45:38;;;;;;;73.95;29.60;;;;;;;8.22;80.88;101628.55;1792177;80;21521;-84
2022/09/05 03:48:44;;;;;;;66.15;27.82;;;;;;;8.26;81.00;101632.77;1791771;80;20850;-85
2022/09/05 03:51:48;;;;;;;67.15;27.58;;;;;;;8.32;81.06;101627.80;1791707;80;20914;-86
2022/09/05 03:54:26;;;;;;;64.82;26.27;;;;;;;8.39;81.06;101639.73;1791882;80;20901;-85
2022/09/05 03:57:50;;;;;;;54.18;23.15;;;;;;;8.45;80.97;101628.27;1791765;80;20913;-85
2022/09/05 04:00:26;;;;;;;47.23;22.07;;;;;;;8.51;80.90;101634.56;1791711;80;22042;-85
2022/09/05 04:03:13;;;;;;;55.35;24.15;;;;;;;8.59;80.96;101635.16;1790749;80;20924;-85
2022/09/05 04:06:02;;;;;;;49.80;23.62;;;;;;;8.64;80.91;101640.22;1790354;80;20961;-86
2022/09/05 04:08:52;;;;;;;60.30;23.87;;;;;;;8.70;80.83;101635.62;1791641;80;20992;-85
2022/09/05 04:11:37;;;;;;;52.53;26.80;;;;;;;8.77;80.92;101634.10;1791897;80;20996;-84
2022/09/05 04:14:20;;;;;;;58.05;29.12;;;;;;;8.84;81.10;101639.04;1792037;80;22039;-84
2022/09/05 04:16:55;;;;;;;62.60;29.63;;;;;;;8.92;81.30;101649.25;1791726;80;21075;-83
2022/09/05 04:19:39;;;;;;;57.75;27.77;;;;;;;9.00;81.48;101645.88;1791146;80;20897;-85
2022/09/05 04:22:31;;;;;;;50.30;25.17;;;;;;;9.08;81.60;101641.22;1791775;80;20905;-83
2022/09/05 04:25:10;;;;;;;39.73;19.90;;;;;;;9.18;81.84;101649.59;1791491;80;21506;-85
2022/09/05 04:28:13;;;;;;;44.20;20.90;;;;;;;9.33;82.34;101655.99;1791943;80;21728;-84
2022/09/05 04:31:04;;;;;;;38.50;20.00;;;;;;;9.44;82.45;101657.73;1793656;80;20961;-84
2022/09/05 04:33:56;;;;;;;33.80;20.37;;;;;;;9.61;82.73;101654.48;1792607;80;20949;-85
2022/09/05 04:36:31;;;;;;;32.55;18.50;;;;;;;9.75;82.78;101656.08;1791771;80;21453;-85
2022/09/05 04:39:09;;;;;;;30.27;18.25;;;;;;;9.91;82.93;101657.63;1791882;80;20980;-85
2022/09/05 04:41:41;;;;;;;30.45;17.25;;;;;;;10.07;83.03;101653.95;1787773;80;20889;-87
2022/09/05 04:44:16;;;;;;;21.82;13.93;;;;;;;10.26;83.23;101661.03;1791730;80;20909;-85
2022/09/05 04:46:56;;;;;;;24.23;13.45;;;;;;;10.45;83.46;101659.81;1792700;80;20924;-85
2022/09/05 04:49:32;;;;;;;19.05;12.03;;;;;;;10.72;83.52;101659.10;1791865;80;20897;-86
2022/09/05 04:52:33;;;;;;;15.40;8.93;;;;;;;10.99;83.40;101658.33;1792105;80;20996;-86
2022/09/05 04:55:11;;;;;;;17.45;9.93;;;;;;;11.37;83.62;101660.50;1794639;80;21146;-83
2022/09/05 04:57:57;;;;;;;16.00;7.55;;;;;;;12.00;83.28;101664.08;1792454;80;20909;-85
2022/09/05 05:00:50;;;;;;;8.93;6.60;;;;;;;12.67;82.44;101661.59;1792421;80;20846;-87
2022/09/05 05:03:20;;;;;;;16.90;6.87;;;;;;;13.53;80.99;101660.96;1791826;80;21132;-87
2022/09/05 05:05:52;;;;;;;10.60;6.72;;;;;;;14.43;77.73;101658.02;1792231;80;20889;-89
2022/09/05 05:08:30;;;;;;;13.62;6.62;;;;;;;15.18;75.28;101657.39;1791915;80;21104;-85
2022/09/05 05:11:09;;;;;;;9.13;4.92;;;;;;;15.90;72.74;101656.77;1791634;80;21007;-86
2022/09/05 05:13:52;;;;;;;12.70;6.03;;;;;;;16.66;70.29;101651.70;1791881;80;20917;-86
2022/09/05 05:16:33;;;;;;;10.55;5.42;;;;;;;17.43;67.48;101655.11;1791758;80;20944;-86
2022/09/05 05:19:16;;;;;;;10.65;5.78;;;;;;;18.00;64.95;101657.58;1791269;80;20988;-87
2022/09/05 05:21:46;;;;;;;7.78;4.60;;;;;;;18.34;63.20;101657.23;1792102;80;21242;-86
2022/09/05 05:24:23;;;;;;;7.33;4.72;;;;;;;18.61;61.82;101654.73;1792913;80;20929;-88
2022/09/05 05:27:09;;;;;;;9.10;4.28;;;;;;;18.77;60.81;101649.94;1794004;80;21000;-87
2022/09/05 05:30:05;;;;;;;6.42;4.80;;;;;;;18.89;60.12;101650.78;1793178;80;20940;-84
2022/09/05 05:32:45;;;;;;;8.45;4.60;;;;;;;18.96;59.60;101657.30;1792452;80;20928;-85
2022/09/05 05:35:25;;;;;;;7.05;4.60;;;;;;;19.15;59.64;101659.36;1792553;80;21230;-86
2022/09/05 05:38:14;;;;;;;7.85;4.45;;;;;;;19.33;59.11;101658.36;1794043;80;20988;-85
2022/09/05 05:40:58;;;;;;;6.85;3.85;;;;;;;19.45;57.97;101658.72;1793708;80;20937;-86
2022/09/05 05:43:34;;;;;;;;;;;;;;;19.56;57.63;101663.14;1793989;80;20842;-85
2022/09/05 05:46:01;;;;;;;9.95;5.00;;;;;;;19.64;57.32;101658.05;1788369;80;20084;-85
2022/09/05 05:48:37;;;;;;;6.92;4.58;;;;;;;19.79;57.01;101661.30;1792015;80;21241;-85
2022/09/05 05:51:32;;;;;;;9.03;3.98;;;;;;;19.99;56.27;101658.33;1764234;80;20878;-86
2022/09/05 05:54:22;;;;;;;4.60;2.62;;;;;;;20.44;55.59;101662.56;1822976;78;20856;-86
2022/09/05 05:57:24;;;;;;;5.75;2.52;;;;;;;21.13;53.60;101659.27;1825357;78;20919;-86
2022/09/05 06:00:20;;;;;;;3.08;2.70;;;;;;;21.81;51.77;101663.44;1825605;78;20923;-85
2022/09/05 06:03:19;;;;;;;4.85;2.60;;;;;;;22.43;49.55;101660.44;1797902;78;22181;-84
2022/09/05 06:06:08;;;;;;;3.75;2.50;;;;;;;22.79;48.28;101664.63;1825397;78;20979;-85
2022/09/05 06:09:20;;;;;;;7.08;3.10;;;;;;;23.18;47.16;101670.19;1791972;78;20847;-85
2022/09/05 06:12:23;;;;;;;3.27;2.95;;;;;;;23.61;46.25;101666.50;1825773;78;20872;-86
2022/09/05 06:15:16;;;;;;;8.63;2.60;;;;;;;24.00;45.12;101667.04;1816271;78;20903;-86
2022/09/05 06:18:07;;;;;;;3.62;2.42;;;;;;;24.23;43.74;101660.35;1825789;78;22078;-87
2022/09/05 06:21:04;;;;;;;6.72;3.10;;;;;;;24.26;42.78;101661.40;1825623;78;21404;-85
2022/09/05 06:24:05;;;;;;;3.12;2.02;;;;;;;24.30;41.71;101657.37;1760868;81;20975;-85
2022/09/05 06:27:20;;;;;;;5.30;2.00;;;;;;;24.39;41.62;101660.48;1761060;81;20986;-86
2022/09/05 06:29:58;;;;;;;;;;;;;;;24.51;40.88;101663.77;1764237;81;20974;-87
2022/09/05 06:32:50;;;;;;;4.83;1.98;;;;;;;24.58;40.88;101662.12;1761062;81;21134;-87
2022/09/05 06:35:45;;;;;;;5.33;1.70;;;;;;;24.69;40.91;101658.34;1760497;80;20930;-87
2022/09/05 06:38:46;;;;;;;5.08;2.33;;;;;;;24.82;40.27;101656.89;1760896;81;20863;-86
2022/09/05 06:41:47;;;;;;;3.60;2.05;;;;;;;25.06;40.10;101661.18;1760197;80;21017;-87
2022/09/05 06:44:34;;;;;;;6.05;2.02;;;;;;;25.36;39.82;101656.62;1760891;80;20863;-86
2022/09/05 06:47:06;;;;;;;3.25;2.15;;;;;;;25.70;38.29;101658.87;1760861;80;21219;-86
2022/09/05 06:50:04;;;;;;;3.45;2.25;;;;;;;26.03;37.66;101657.06;1760761;81;20939;-88
2022/09/05 06:53:16;;;;;;;2.08;1.80;;;;;;;26.33;37.24;101658.74;1760642;81;20951;-87
2022/09/05 06:55:58;;;;;;;5.08;2.33;;;;;;;26.71;36.43;101654.47;1824800;77;20860;-87
2022/09/05 06:59:07;;;;;;;5.22;2.02;;;;;;;27.11;35.91;101654.49;1825452;77;20915;-86
2022/09/05 07:01:45;;;;;;;2.45;1.72;;;;;;;27.41;35.58;101655.04;1790152;80;21258;-84
2022/09/05 07:04:28;;;;;;;2.80;1.62;;;;;;;27.73;35.19;101653.13;1789757;79;20904;-87
2022/09/05 07:07:12;;;;;;;1.77;1.67;;;;;;;28.09;34.50;101648.48;1777611;80;21230;-84
2022/09/05 07:09:57;;;;;;;2.77;1.52;;;;;;;28.45;34.03;101643.73;1787497;80;21021;-87
2022/09/05 07:12:41;;;;;;;1.55;1.37;;;;;;;28.68;33.16;101645.02;1790271;79;20895;-88
2022/09/05 07:15:53;;;;;;;7.78;1.70;;;;;;;28.83;32.50;101645.02;1755123;80;21164;-88
2022/09/05 07:18:31;;;;;;;1.95;1.40;;;;;;;28.92;32.33;101645.23;1777423;79;20993;-86
2022/09/05 07:21:09;;;;;;;4.30;1.90;;;;;;;28.91;31.90;101644.92;1788661;80;21030;-89
2022/09/05 07:24:01;;;;;;;3.65;1.57;;;;;;;28.77;31.56;101643.92;1790049;80;20896;-88
2022/09/05 07:26:31;;;;;;;2.42;1.40;;;;;;;28.64;32.01;101644.57;1790184;79;20903;-87
2022/09/05 07:29:02;;;;;;;3.05;1.65;;;;;;;28.51;32.70;101633.07;1790299;79;21416;-86
2022/09/05 07:31:30;;;;;;;1.95;1.75;;;;;;;28.72;32.05;101632.83;1790776;80;20982;-86
2022/09/05 07:34:28;;;;;;;1.15;1.00;;;;;;;29.13;31.68;101626.94;1790914;79;21396;-86
2022/09/05 07:36:59;;;;;;;2.87;1.40;;;;;;;29.55;30.70;101623.96;1799953;78;20903;-88
2022/09/05 07:39:30;;;;;;;2.08;1.12;;;;;;;29.88;30.64;101621.59;1827222;78;20982;-90
2022/09/05 07:41:59;;;;;;;2.27;1.20;;;;;;;30.09;30.16;101625.28;1798821;78;21225;-88
2022/09/05 07:44:29;;;;;;;3.20;1.47;;;;;;;30.01;30.06;101624.89;1825933;77;20907;-88
2022/09/05 07:47:04;;;;;;;2.70;1.30;;;;;;;30.00;29.71;101617.83;1826286;78;20902;-88
2022/09/05 07:49:34;;;;;;;0.90;0.90;;;;;;;30.07;29.11;101617.35;1825776;78;20883;-88
2022/09/05 07:52:21;;;;;;;6.15;1.07;;;;;;;30.06;28.90;101609.42;1825545;78;20930;-87
2022/09/05 07:54:51;;;;;;;6.35;1.75;;;;;;;30.04;29.08;101613.70;1824345;78;21217;-88
2022/09/05 07:57:26;;;;;;;4.45;2.65;;;;;;;29.80;29.12;101601.44;1822294;78;20998;-88
2022/09/05 08:00:08;;;;;;;2.45;1.60;;;;;;;29.49;29.74;101600.40;1822291;78;21440;-88
2022/09/05 08:02:44;;;;;;;2.60;1.90;;;;;;;29.20;29.20;101598.66;1822278;78;20986;-89
2022/09/05 08:06:53;;;;;;;2.67;1.37;;;;;;;28.81;29.80;101599.30;1839898;77;27745;-85
2022/09/05 08:09:34;;;;;;;3.20;1.25;;;;;;;28.80;29.70;101597.63;1808169;78;27910;-89
2022/09/05 08:12:10;;;;;;;3.83;1.12;;;;;;;29.00;29.08;101595.70;1822839;78;21946;-87
2022/09/05 08:14:59;;;;;;;4.28;1.07;;;;;;;29.10;28.73;101594.40;1822778;78;20963;-89
2022/09/05 08:17:26;;;;;;;1.72;1.50;;;;;;;28.90;29.02;101588.73;1822314;78;20927;-88
2022/09/05 08:20:07;;;;;;;1.82;0.82;;;;;;;28.70;29.17;101589.84;1822786;78;21372;-86
2022/09/05 08:22:51;;;;;;;3.47;1.50;;;;;;;28.60;28.25;101582.53;1822819;78;20896;-87
2022/09/05 08:25:24;;;;;;;2.30;1.17;;;;;;;28.66;28.36;101582.31;1821918;78;21154;-86
2022/09/05 08:28:06;;;;;;;2.08;1.10;;;;;;;28.79;27.71;101585.17;1821751;78;20840;-86
2022/09/05 08:30:49;;;;;;;3.50;1.30;;;;;;;28.87;26.95;101578.81;1822838;78;21368;-87
2022/09/05 08:33:23;;;;;;;4.08;0.95;;;;;;;29.00;27.33;101580.31;1822566;78;21594;-87
2022/09/05 08:36:11;;;;;;;7.78;2.00;;;;;;;29.29;26.81;101578.58;1822686;78;20958;-87
2022/09/05 08:38:39;;;;;;;1.00;0.70;;;;;;;29.64;26.98;101574.66;1822703;78;21848;-86
2022/09/05 08:41:27;;;;;;;2.02;0.95;;;;;;;30.02;26.63;101574.36;1822499;78;20939;-88
2022/09/05 08:44:08;;;;;;;1.50;1.12;;;;;;;30.44;25.32;101569.82;1822864;78;20919;-85
2022/09/05 08:46:58;;;;;;;2.55;0.90;;;;;;;30.91;24.93;101572.26;1822828;78;20975;-88
2022/09/05 08:49:33;;;;;;;2.37;1.12;;;;;;;31.27;23.49;101570.56;1822552;78;20864;-87
2022/09/05 08:52:55;;;;;;;3.25;0.65;;;;;;;31.65;23.20;101563.21;1822563;78;21802;-86
2022/09/05 08:55:56;;;;;;;3.27;0.78;;;;;;;31.93;23.33;101560.81;1778162;78;20916;-87
2022/09/05 08:58:40;;;;;;;3.35;1.30;;;;;;;32.14;22.71;101552.42;1822579;78;20868;-86
2022/09/05 09:01:33;;;;;;;1.65;0.93;;;;;;;32.38;22.42;101550.90;1822807;78;20958;-89
2022/09/05 09:04:35;;;;;;;3.20;1.30;;;;;;;32.49;22.18;101541.25;1823132;78;20900;-87
2022/09/05 09:07:39;;;;;;;3.05;0.70;;;;;;;32.31;22.28;101546.55;1822896;78;21142;-88
2022/09/05 09:10:49;;;;;;;2.50;0.75;;;;;;;32.07;20.94;101539.41;1822954;78;20895;-88
2022/09/05 09:13:24;;;;;;;1.10;0.57;;;;;;;31.99;21.55;101530.12;1822862;78;20876;-88
2022/09/05 09:16:22;;;;;;;1.25;0.70;;;;;;;32.17;21.08;101527.59;1822963;78;21198;-88
2022/09/05 09:18:55;;;;;;;1.10;0.80;;;;;;;32.35;21.06;101535.55;1822377;78;21014;-88
2022/09/05 09:21:42;;;;;;;0.78;0.75;;;;;;;32.45;21.31;101526.44;1822464;78;21424;-86
2022/09/05 09:24:36;;;;;;;1.10;0.70;;;;;;;32.24;20.81;101528.93;1822398;78;20931;-87
2022/09/05 09:27:20;;;;;;;1.42;0.70;;;;;;;32.03;21.03;101524.59;1822370;78;20900;-89
2022/09/05 09:29:47;;;;;;;0.72;0.60;;;;;;;32.07;21.03;101524.48;1821307;78;20935;-88
2022/09/05 09:32:40;;;;;;;1.60;1.00;;;;;;;32.28;20.27;101522.00;1822479;78;21342;-88
2022/09/05 09:35:40;;;;;;;2.45;0.60;;;;;;;32.45;20.49;101507.95;1822601;78;21131;-87
2022/09/05 09:38:33;;;;;;;0.68;0.42;;;;;;;32.52;20.32;101508.25;1803022;78;21411;-89
2022/09/05 09:41:30;;;;;;;1.12;0.68;;;;;;;32.41;19.35;101508.90;1817658;78;21464;-87
2022/09/05 09:44:34;;;;;;;0.62;0.55;;;;;;;32.23;19.50;101503.34;1822170;78;20934;-88
2022/09/05 09:47:02;;;;;;;1.27;0.70;;;;;;;32.06;20.23;101501.61;1822502;78;20928;-87
2022/09/05 09:50:08;;;;;;;1.77;1.02;;;;;;;31.69;21.13;101502.09;1822241;78;21134;-88
2022/09/05 09:52:55;;;;;;;3.58;0.80;;;;;;;31.39;21.29;101503.00;1821880;78;20943;-89
2022/09/05 09:55:39;;;;;;;2.37;0.80;;;;;;;31.00;21.16;101504.66;1822413;78;20911;-87
2022/09/05 09:58:29;;;;;;;1.47;0.68;;;;;;;30.63;21.06;101499.21;1821301;78;20927;-92
2022/09/05 10:01:37;;;;;;;4.83;1.05;;;;;;;30.27;22.30;101496.23;1822338;78;20959;-88
2022/09/05 10:04:33;;;;;;;1.72;0.80;;;;;;;29.88;22.71;101493.12;1822211;78;21180;-87
2022/09/05 10:07:34;;;;;;;1.02;0.95;;;;;;;29.77;23.21;101486.91;1821496;78;20931;-86
2022/09/05 10:10:10;;;;;;;3.27;1.35;;;;;;;29.62;23.24;101478.86;1821972;78;20923;-88
2022/09/05 10:13:09;;;;;;;2.25;0.72;;;;;;;29.37;23.22;101474.91;1822024;78;20994;-90
2022/09/05 10:15:48;;;;;;;1.55;0.90;;;;;;;29.39;22.94;101469.62;1822877;78;20966;-89
2022/09/05 10:18:39;;;;;;;2.45;0.60;;;;;;;29.66;23.28;101468.47;1822871;78;21125;-86
2022/09/05 10:21:52;;;;;;;2.92;0.60;;;;;;;29.82;22.91;101465.51;1823143;78;20852;-86
2022/09/05 10:24:30;;;;;;;2.60;0.80;;;;;;;29.90;22.22;101464.01;1824636;78;20923;-88
2022/09/05 10:27:22;;;;;;;1.32;0.93;;;;;;;29.75;22.17;101461.41;1792609;78;20955;-85
2022/09/05 10:30:22;;;;;;;2.77;1.27;;;;;;;29.57;22.88;101472.36;1822101;78;20970;-87
2022/09/05 10:33:43;;;;;;;1.07;0.78;;;;;;;29.21;23.30;101462.52;1817305;78;21234;-88
2022/09/05 10:36:30;;;;;;;1.22;0.90;;;;;;;28.75;23.76;101469.13;1822327;78;20919;-89
2022/09/05 10:39:18;;;;;;;6.15;3.12;;;;;;;28.36;24.56;101463.55;1822382;78;20867;-89
2022/09/05 10:41:49;;;;;;;1.72;1.25;;;;;;;28.26;24.48;101469.78;1822532;78;20841;-87
2022/09/05 10:44:40;;;;;;;0.80;0.70;;;;;;;28.44;25.00;101466.16;1822107;78;20879;-87
2022/09/05 10:47:27;;;;;;;0.85;0.75;;;;;;;28.64;24.70;101465.59;1822151;78;21782;-88
2022/09/05 10:50:05;;;;;;;2.35;1.00;;;;;;;28.90;24.46;101456.41;1821398;78;20908;-88
2022/09/05 10:52:35;;;;;;;1.70;0.88;;;;;;;29.25;22.71;101453.00;1805776;78;20848;-89
2022/09/05 10:55:17;;;;;;;1.50;0.82;;;;;;;29.39;23.44;101445.30;1821646;78;20860;-87
2022/09/05 10:57:59;;;;;;;0.88;0.78;;;;;;;29.55;23.01;101440.14;1822845;78;21369;-88
2022/09/05 11:01:08;;;;;;;0.78;0.60;;;;;;;29.87;22.81;101445.45;1821076;78;22130;-86
2022/09/05 11:03:44;;;;;;;3.55;1.22;;;;;;;30.13;23.00;101443.41;1820883;78;20868;-88
2022/09/05 11:06:16;;;;;;;2.15;1.95;;;;;;;30.46;22.87;101438.67;1822358;78;20891;-89
2022/09/05 11:09:03;;;;;;;3.98;1.07;;;;;;;30.72;22.98;101436.52;1822118;78;20918;-87
2022/09/05 11:11:29;;;;;;;2.10;1.00;;;;;;;31.04;23.00;101433.25;1822087;78;21393;-87
2022/09/05 11:13:59;;;;;;;1.27;0.80;;;;;;;31.24;22.87;101430.55;1822199;78;20958;-88
2022/09/05 11:16:35;;;;;;;2.60;0.90;;;;;;;31.31;22.45;101429.52;1821872;78;20947;-88
2022/09/05 11:19:06;;;;;;;2.67;1.75;;;;;;;31.26;21.75;101422.54;1822349;78;20844;-87
2022/09/05 11:21:59;;;;;;;4.28;1.37;;;;;;;31.29;21.47;101412.63;1822316;78;20926;-89
2022/09/05 11:24:42;;;;;;;;;;;;;;;31.24;21.52;101409.72;1824985;78;21567;-88
2022/09/05 11:27:28;;;;;;;3.75;1.35;;;;;;;31.18;22.04;101410.55;1822503;78;21812;-87
2022/09/05 11:30:16;;;;;;;2.83;1.20;;;;;;;31.05;22.18;101409.20;1822210;78;20911;-88
2022/09/05 11:33:20;;;;;;;1.37;1.27;;;;;;;30.92;21.80;101410.02;1822217;78;20927;-88
2022/09/05 11:35:58;;;;;;;1.00;0.90;;;;;;;30.76;21.30;101407.17;1822569;78;20890;-87
2022/09/05 11:38:45;;;;;;;2.27;1.52;;;;;;;30.60;21.39;101409.75;1819720;78;20895;-87
2022/09/05 11:41:57;;;;;;;4.72;1.22;;;;;;;30.53;21.27;101399.44;1822296;78;21459;-87
2022/09/05 11:44:50;;;;;;;0.93;0.70;;;;;;;30.50;20.79;101399.83;1822082;78;20876;-87
2022/09/05 11:47:56;;;;;;;2.83;0.57;;;;;;;30.36;20.36;101399.80;1821939;78;20879;-89
2022/09/05 11:50:49;;;;;;;8.98;7.33;;;;;;;30.23;20.17;101397.02;1705041;82;20951;-89
2022/09/05 11:53:56;;;;;;;1.10;0.50;;;;;;;30.11;19.81;101385.13;1723038;82;20911;-88
2022/09/05 11:56:54;;;;;;;2.35;2.17;;;;;;;29.94;20.02;101388.69;1723217;82;21246;-89
2022/09/05 12:00:10;;;;;;;4.42;1.12;;;;;;;29.74;20.02;101380.48;1723540;82;21562;-88
2022/09/05 12:03:13;;;;;;;1.30;1.07;;;;;;;29.45;20.58;101375.61;1722637;82;20963;-85
2022/09/05 12:06:23;;;;;;;1.12;0.88;;;;;;;29.02;20.57;101374.34;1721970;82;21611;-88
2022/09/05 12:09:07;;;;;;;0.53;0.40;;;;;;;28.50;21.01;101370.98;1722853;82;21018;-88
2022/09/05 12:12:09;;;;;;;1.98;0.88;;;;;;;27.97;22.13;101365.45;1723176;82;21111;-85
2022/09/05 12:15:15;;;;;;;2.30;0.85;;;;;;;27.56;22.69;101365.41;1723068;82;20972;-87
2022/09/05 12:18:24;;;;;;;3.42;0.93;;;;;;;27.11;23.37;101364.50;1711643;82;21050;-87
2022/09/05 12:21:30;;;;;;;3.83;0.98;;;;;;;26.70;23.78;101354.59;1722790;82;21028;-88
2022/09/05 12:24:23;;;;;;;1.42;0.90;;;;;;;26.36;24.19;101362.02;1737486;78;20923;-86
2022/09/05 12:27:07;;;;;;;1.57;0.70;;;;;;;26.09;25.37;101357.98;1820819;78;21079;-87
2022/09/05 12:29:37;;;;;;;1.42;0.93;;;;;;;25.83;25.55;101360.92;1821993;78;21341;-88
2022/09/05 12:32:08;;;;;;;3.80;0.82;;;;;;;25.58;25.72;101361.00;1822062;78;20895;-87
2022/09/05 12:34:54;;;;;;;1.87;1.27;;;;;;;25.42;26.34;101357.03;1821857;78;20895;-88
2022/09/05 12:37:27;;;;;;;2.37;1.20;;;;;;;25.26;26.33;101355.22;1821765;78;20879;-86
2022/09/05 12:40:13;;;;;;;1.43;1.00;;;;;;;25.09;25.97;101354.88;1822376;78;21182;-86
2022/09/05 12:43:00;;;;;;;1.67;1.10;;;;;;;24.90;26.43;101356.91;1822140;78;20978;-89
2022/09/05 12:45:56;;;;;;;1.70;1.07;;;;;;;24.73;27.24;101352.55;1821873;78;20887;-87
2022/09/05 12:48:32;;;;;;;1.90;1.07;;;;;;;24.65;27.14;101347.99;1822573;78;20904;-86
2022/09/05 12:51:14;;;;;;;1.22;0.82;;;;;;;24.60;28.29;101344.98;1822912;78;20990;-87
2022/09/05 12:53:54;;;;;;;1.17;1.05;;;;;;;24.59;28.48;101344.16;1825263;78;21172;-85
2022/09/05 12:56:32;;;;;;;4.05;1.20;;;;;;;24.55;27.79;101337.44;1822780;78;20920;-88
2022/09/05 12:58:58;;;;;;;9.60;4.10;;;;;;;24.49;27.78;101340.77;1822025;78;20927;-88
2022/09/05 13:01:41;;;;;;;2.58;2.22;;;;;;;24.40;28.19;101335.03;1822372;78;20856;-87
2022/09/05 13:04:21;;;;;;;4.00;1.57;;;;;;;24.29;28.39;101332.67;1822519;78;21029;-87
2022/09/05 13:07:08;;;;;;;3.12;1.50;;;;;;;24.14;28.93;101328.44;1822373;78;21234;-89